createdAt,value
2022-08-14T00:00:29.761Z,100.00
2022-08-14T00:01:26.578Z,100.00
2022-08-14T00:02:31.193Z,100.00
2022-08-14T00:03:31.899Z,100.00
2022-08-14T00:04:35.255Z,100.00
2022-08-14T00:05:35.562Z,100.00
2022-08-14T00:06:32.529Z,100.00
2022-08-14T00:07:29.563Z,100.00
2022-08-14T00:08:45.098Z,100.00
2022-08-14T00:09:55.706Z,100.00
2022-08-14T00:11:00.186Z,100.00
2022-08-14T00:11:58.569Z,100.00
2022-08-14T00:12:56.662Z,100.00
2022-08-14T00:13:54.396Z,100.00
2022-08-14T00:14:54.945Z,100.00
2022-08-14T00:15:52.147Z,100.00
2022-08-14T00:16:50.742Z,100.00
2022-08-14T00:17:53.812Z,100.00
2022-08-14T00:19:05.440Z,100.00
2022-08-14T00:20:08.905Z,100.00
2022-08-14T00:21:11.358Z,100.00
2022-08-14T00:22:08.355Z,100.00
2022-08-14T00:23:16.341Z,100.00
2022-08-14T00:24:14.281Z,100.00
2022-08-14T00:25:20.513Z,100.00
2022-08-14T00:26:21.812Z,100.00
2022-08-14T00:27:20.730Z,100.00
2022-08-14T00:28:17.900Z,100.00
2022-08-14T00:29:15.242Z,100.00
2022-08-14T00:30:17.328Z,100.00
2022-08-14T00:31:14.919Z,100.00
2022-08-14T00:32:51.948Z,100.00
2022-08-14T00:33:51.683Z,100.00
2022-08-14T00:34:48.188Z,100.00
2022-08-14T00:36:37.264Z,100.00
2022-08-14T00:37:05.562Z,100.00
2022-08-14T00:38:02.641Z,100.00
2022-08-14T00:39:06.473Z,100.00
2022-08-14T00:40:19.062Z,100.00
2022-08-14T00:41:23.835Z,100.00
2022-08-14T00:42:56.002Z,100.00
2022-08-14T00:43:41.780Z,100.00
2022-08-14T00:44:40.118Z,100.00
2022-08-14T00:45:39.724Z,100.00
2022-08-14T00:46:38.960Z,100.00
2022-08-14T00:47:37.575Z,100.00
2022-08-14T00:48:41.702Z,100.00
2022-08-14T00:49:43.170Z,100.00
2022-08-14T00:50:40.443Z,100.00
2022-08-14T00:51:38.721Z,100.00
2022-08-14T00:52:38.779Z,100.00
2022-08-14T00:53:39.897Z,100.00
2022-08-14T00:54:41.216Z,100.00
2022-08-14T00:55:40.613Z,100.00
2022-08-14T00:56:39.826Z,100.00
2022-08-14T00:57:38.203Z,100.00
2022-08-14T00:58:44.911Z,100.00
2022-08-14T00:59:42.218Z,100.00
2022-08-14T01:00:47.407Z,100.00
2022-08-14T01:01:48.696Z,100.00
2022-08-14T01:02:46.285Z,100.00
2022-08-14T01:03:53.518Z,100.00
2022-08-14T01:04:55.063Z,100.00
2022-08-14T01:05:53.016Z,100.00
2022-08-14T01:06:52.416Z,100.00
2022-08-14T01:07:57.015Z,100.00
2022-08-14T01:08:59.415Z,100.00
2022-08-14T01:10:01.874Z,100.00
2022-08-14T01:10:59.285Z,100.00
2022-08-14T01:12:02.738Z,100.00
2022-08-14T01:13:01.385Z,100.00
2022-08-14T01:14:00.836Z,100.00
2022-08-14T01:15:00.274Z,100.00
2022-08-14T01:16:03.532Z,100.00
2022-08-14T01:17:00.411Z,100.00
2022-08-14T01:18:16.084Z,100.00
2022-08-14T01:19:36.978Z,100.00
2022-08-14T01:20:52.921Z,100.00
2022-08-14T01:21:53.275Z,100.00
2022-08-14T01:22:51.532Z,100.00
2022-08-14T01:23:51.606Z,100.00
2022-08-14T01:24:51.051Z,100.00
2022-08-14T01:25:51.068Z,100.00
2022-08-14T01:26:50.674Z,100.00
2022-08-14T01:27:56.767Z,100.00
2022-08-14T01:28:58.498Z,100.00
2022-08-14T01:30:03.563Z,100.00
2022-08-14T01:31:02.299Z,100.00
2022-08-14T01:32:01.799Z,100.00
2022-08-14T01:33:02.926Z,100.00
2022-08-14T01:35:17.634Z,100.00
2022-08-14T01:36:03.911Z,100.00
2022-08-14T01:36:39.577Z,100.00
2022-08-14T01:37:38.182Z,100.00
2022-08-14T01:38:48.811Z,100.00
2022-08-14T01:39:45.913Z,100.00
2022-08-14T01:40:42.689Z,100.00
2022-08-14T01:41:43.231Z,100.00
2022-08-14T01:42:42.961Z,100.00
2022-08-14T01:43:56.075Z,100.00
2022-08-14T01:44:55.377Z,100.00
2022-08-14T01:45:58.004Z,100.00
2022-08-14T01:47:16.534Z,100.00
2022-08-14T01:48:20.844Z,100.00
2022-08-14T01:49:17.802Z,100.00
2022-08-14T01:50:18.312Z,100.00
2022-08-14T01:51:26.362Z,100.00
2022-08-14T01:52:57.632Z,100.00
2022-08-14T01:53:42.237Z,100.00
2022-08-14T01:54:39.277Z,100.00
2022-08-14T01:55:36.961Z,100.00
2022-08-14T01:56:42.863Z,100.00
2022-08-14T01:57:56.598Z,100.00
2022-08-14T01:58:58.725Z,100.00
2022-08-14T01:59:57.000Z,100.00
2022-08-14T02:00:56.358Z,100.00
2022-08-14T02:01:59.171Z,100.00
2022-08-14T02:02:58.267Z,100.00
2022-08-14T02:03:57.236Z,100.00
2022-08-14T02:04:57.520Z,100.00
2022-08-14T02:05:58.393Z,100.00
2022-08-14T02:06:55.277Z,100.00
2022-08-14T02:07:55.998Z,100.00
2022-08-14T02:09:17.158Z,100.00
2022-08-14T02:10:19.390Z,100.00
2022-08-14T02:11:25.777Z,100.00
2022-08-14T02:12:26.500Z,100.00
2022-08-14T02:13:26.286Z,100.00
2022-08-14T02:14:31.014Z,100.00
2022-08-14T02:15:28.638Z,100.00
2022-08-14T02:16:29.651Z,100.00
2022-08-14T02:17:28.717Z,100.00
2022-08-14T02:18:32.663Z,100.00
2022-08-14T02:19:32.259Z,100.00
2022-08-14T02:20:33.902Z,100.00
2022-08-14T02:21:43.797Z,100.00
2022-08-14T02:22:47.938Z,100.00
2022-08-14T02:23:53.624Z,100.00
2022-08-14T02:24:51.321Z,100.00
2022-08-14T02:25:54.683Z,100.00
2022-08-14T02:28:18.608Z,100.00
2022-08-14T02:28:23.109Z,100.00
2022-08-14T02:29:59.701Z,100.00
2022-08-14T02:30:47.938Z,100.00
2022-08-14T02:31:55.985Z,100.00
2022-08-14T02:32:55.025Z,100.00
2022-08-14T02:33:56.419Z,100.00
2022-08-14T02:34:53.516Z,100.00
2022-08-14T02:35:53.442Z,100.00
2022-08-14T02:37:06.587Z,100.00
2022-08-14T02:38:04.753Z,100.00
2022-08-14T02:39:01.486Z,100.00
2022-08-14T02:39:58.742Z,100.00
2022-08-14T02:40:55.523Z,100.00
2022-08-14T02:41:58.135Z,100.00
2022-08-14T02:42:57.784Z,100.00
2022-08-14T02:43:54.781Z,100.00
2022-08-14T02:44:57.896Z,100.00
2022-08-14T02:45:54.731Z,100.00
2022-08-14T02:46:53.541Z,100.00
2022-08-14T02:47:58.767Z,100.00
2022-08-14T02:49:02.508Z,100.00
2022-08-14T02:50:01.823Z,100.00
2022-08-14T02:51:01.302Z,100.00
2022-08-14T02:51:58.760Z,100.00
2022-08-14T02:53:14.979Z,100.00
2022-08-14T02:54:13.010Z,100.00
2022-08-14T02:55:10.214Z,100.00
2022-08-14T02:56:30.819Z,100.00
2022-08-14T02:57:40.461Z,100.00
2022-08-14T02:58:41.837Z,100.00
2022-08-14T02:59:43.290Z,100.00
2022-08-14T03:00:40.493Z,100.00
2022-08-14T03:01:50.563Z,100.00
2022-08-14T03:02:58.995Z,100.00
2022-08-14T03:03:56.506Z,100.00
2022-08-14T03:04:54.403Z,100.00
2022-08-14T03:05:54.215Z,100.00
2022-08-14T03:07:06.515Z,100.00
2022-08-14T03:08:07.822Z,100.00
2022-08-14T03:09:05.689Z,100.00
2022-08-14T03:10:27.695Z,100.00
2022-08-14T03:11:22.353Z,100.00
2022-08-14T03:12:30.899Z,100.00
2022-08-14T03:13:29.619Z,100.00
2022-08-14T03:14:27.746Z,100.00
2022-08-14T03:15:24.598Z,100.00
2022-08-14T03:16:26.960Z,100.00
2022-08-14T03:17:24.164Z,100.00
2022-08-14T03:18:32.057Z,100.00
2022-08-14T03:19:29.455Z,100.00
2022-08-14T03:20:30.260Z,100.00
2022-08-14T03:21:31.424Z,100.00
2022-08-14T03:22:31.630Z,100.00
2022-08-14T03:23:28.590Z,100.00
2022-08-14T03:24:25.592Z,100.00
2022-08-14T03:25:23.138Z,100.00
2022-08-14T03:26:30.287Z,100.00
2022-08-14T03:27:35.377Z,100.00
2022-08-14T03:28:48.701Z,100.00
2022-08-14T03:29:45.435Z,100.00
2022-08-14T03:30:42.855Z,100.00
2022-08-14T03:31:42.109Z,100.00
2022-08-14T03:32:40.022Z,100.00
2022-08-14T03:33:40.817Z,100.00
2022-08-14T03:34:47.803Z,100.00
2022-08-14T03:36:05.677Z,100.00
2022-08-14T03:37:51.892Z,100.00
2022-08-14T03:39:15.879Z,100.00
2022-08-14T03:39:44.065Z,100.00
2022-08-14T03:40:42.300Z,100.00
2022-08-14T03:41:40.489Z,100.00
2022-08-14T03:42:39.462Z,100.00
2022-08-14T03:43:36.196Z,100.00
2022-08-14T03:45:28.020Z,100.00
2022-08-14T03:45:52.023Z,100.00
2022-08-14T03:46:54.990Z,100.00
2022-08-14T03:47:56.084Z,100.00
2022-08-14T03:48:55.504Z,100.00
2022-08-14T03:49:52.273Z,100.00
2022-08-14T03:50:53.854Z,100.00
2022-08-14T03:51:53.055Z,100.00
2022-08-14T03:52:55.986Z,100.00
2022-08-14T03:54:00.240Z,100.00
2022-08-14T03:54:57.046Z,100.00
2022-08-14T03:55:59.066Z,100.00
2022-08-14T03:57:02.476Z,100.00
2022-08-14T03:58:00.359Z,100.00
2022-08-14T03:59:02.334Z,100.00
2022-08-14T04:00:02.179Z,100.00
2022-08-14T04:01:02.484Z,100.00
2022-08-14T04:02:01.854Z,100.00
2022-08-14T04:02:59.317Z,100.00
2022-08-14T04:04:06.140Z,100.00
2022-08-14T04:05:12.986Z,100.00
2022-08-14T04:06:10.579Z,100.00
2022-08-14T04:07:11.040Z,100.00
2022-08-14T04:08:29.041Z,100.00
2022-08-14T04:09:28.472Z,100.00
2022-08-14T04:10:31.963Z,100.00
2022-08-14T04:11:29.669Z,100.00
2022-08-14T04:12:26.862Z,100.00
2022-08-14T04:13:24.041Z,100.00
2022-08-14T04:14:20.942Z,100.00
2022-08-14T04:15:21.240Z,100.00
2022-08-14T04:16:23.547Z,100.00
2022-08-14T04:17:20.297Z,100.00
2022-08-14T04:18:19.341Z,100.00
2022-08-14T04:19:20.571Z,100.00
2022-08-14T04:20:25.443Z,100.00
2022-08-14T04:21:28.183Z,100.00
2022-08-14T04:22:25.300Z,100.00
2022-08-14T04:23:23.786Z,100.00
2022-08-14T04:24:30.754Z,100.00
2022-08-14T04:25:36.420Z,100.00
2022-08-14T04:26:42.257Z,100.00
2022-08-14T04:28:01.757Z,100.00
2022-08-14T04:29:06.997Z,100.00
2022-08-14T04:30:12.425Z,100.00
2022-08-14T04:32:58.903Z,100.00
2022-08-14T04:33:00.160Z,100.00
2022-08-14T04:33:57.084Z,100.00
2022-08-14T04:34:54.885Z,100.00
2022-08-14T04:35:56.576Z,100.00
2022-08-14T04:37:12.674Z,100.00
2022-08-14T04:38:36.520Z,100.00
2022-08-14T04:40:10.415Z,100.00
2022-08-14T04:41:30.216Z,100.00
2022-08-14T04:42:47.400Z,100.00
2022-08-14T04:43:48.486Z,100.00
2022-08-14T04:44:51.470Z,100.00
2022-08-14T04:45:53.043Z,100.00
2022-08-14T04:47:08.479Z,100.00
2022-08-14T04:48:36.771Z,100.00
2022-08-14T04:49:38.361Z,100.00
2022-08-14T04:50:54.232Z,100.00
2022-08-14T04:51:56.054Z,100.00
2022-08-14T04:52:53.935Z,100.00
2022-08-14T04:53:53.227Z,100.00
2022-08-14T04:54:49.941Z,100.00
2022-08-14T04:55:51.658Z,100.00
2022-08-14T04:56:48.505Z,100.00
2022-08-14T04:57:47.833Z,100.00
2022-08-14T04:58:47.954Z,100.00
2022-08-14T04:59:44.673Z,100.00
2022-08-14T05:00:41.561Z,100.00
2022-08-14T05:01:49.044Z,100.00
2022-08-14T05:02:47.642Z,100.00
2022-08-14T05:03:44.529Z,100.00
2022-08-14T05:04:45.144Z,100.00
2022-08-14T05:05:58.245Z,100.00
2022-08-14T05:06:55.544Z,100.00
2022-08-14T05:08:01.227Z,100.00
2022-08-14T05:08:59.976Z,100.00
2022-08-14T05:09:57.193Z,100.00
2022-08-14T05:10:57.037Z,100.00
2022-08-14T05:11:54.113Z,100.00
2022-08-14T05:13:14.349Z,100.00
2022-08-14T05:14:17.078Z,100.00
2022-08-14T05:15:29.515Z,100.00
2022-08-14T05:16:31.123Z,100.00
2022-08-14T05:17:34.761Z,100.00
2022-08-14T05:19:17.948Z,100.00
2022-08-14T05:21:10.992Z,100.00
2022-08-14T05:21:57.146Z,100.00
2022-08-14T05:22:31.519Z,100.00
2022-08-14T05:23:31.774Z,100.00
2022-08-14T05:24:29.234Z,100.00
2022-08-14T05:25:31.053Z,100.00
2022-08-14T05:26:31.129Z,100.00
2022-08-14T05:27:31.044Z,100.00
2022-08-14T05:28:31.172Z,100.00
2022-08-14T05:29:29.570Z,100.00
2022-08-14T05:30:27.324Z,100.00
2022-08-14T05:31:24.373Z,100.00
2022-08-14T05:32:36.434Z,100.00
2022-08-14T05:33:35.879Z,100.00
2022-08-14T05:34:32.633Z,100.00
2022-08-14T05:35:30.987Z,100.00
2022-08-14T05:36:30.183Z,100.00
2022-08-14T05:37:29.735Z,100.00
2022-08-14T05:38:35.334Z,100.00
2022-08-14T05:39:32.201Z,100.00
2022-08-14T05:40:28.994Z,100.00
2022-08-14T05:41:43.646Z,100.00
2022-08-14T05:42:42.696Z,100.00
2022-08-14T05:43:51.061Z,100.00
2022-08-14T05:44:48.084Z,100.00
2022-08-14T05:45:46.270Z,100.00
2022-08-14T05:46:43.018Z,100.00
2022-08-14T05:47:41.691Z,100.00
2022-08-14T05:48:42.974Z,100.00
2022-08-14T05:49:40.322Z,100.00
2022-08-14T05:50:38.107Z,100.00
2022-08-14T05:51:34.885Z,100.00
2022-08-14T05:52:39.061Z,100.00
2022-08-14T05:53:36.298Z,100.00
2022-08-14T05:54:39.090Z,100.00
2022-08-14T05:55:36.882Z,100.00
2022-08-14T05:56:41.176Z,100.00
2022-08-14T05:58:01.047Z,100.00
2022-08-14T05:58:57.797Z,100.00
2022-08-14T05:59:57.449Z,100.00
2022-08-14T06:00:57.541Z,100.00
2022-08-14T06:01:54.393Z,100.00
2022-08-14T06:02:52.552Z,100.00
2022-08-14T06:03:49.618Z,100.00
2022-08-14T06:04:51.373Z,100.00
2022-08-14T06:05:51.949Z,100.00
2022-08-14T06:06:48.812Z,100.00
2022-08-14T06:07:45.549Z,100.00
2022-08-14T06:08:42.321Z,100.00
2022-08-14T06:09:40.398Z,100.00
2022-08-14T06:10:37.664Z,100.00
2022-08-14T06:11:34.737Z,100.00
2022-08-14T06:12:56.586Z,100.00
2022-08-14T06:13:50.207Z,100.00
2022-08-14T06:14:48.955Z,100.00
2022-08-14T06:15:46.982Z,100.00
2022-08-14T06:16:45.218Z,100.00
2022-08-14T06:17:47.195Z,100.00
2022-08-14T06:18:55.573Z,100.00
2022-08-14T06:19:56.449Z,100.00
2022-08-14T06:20:54.459Z,100.00
2022-08-14T06:21:58.238Z,100.00
2022-08-14T06:22:56.355Z,100.00
2022-08-14T06:23:53.595Z,100.00
2022-08-14T06:24:50.513Z,100.00
2022-08-14T06:25:52.775Z,100.00
2022-08-14T06:26:54.233Z,100.00
2022-08-14T06:28:03.942Z,100.00
2022-08-14T06:29:00.855Z,100.00
2022-08-14T06:29:58.037Z,100.00
2022-08-14T06:30:55.897Z,100.00
2022-08-14T06:31:54.584Z,100.00
2022-08-14T06:32:57.858Z,100.00
2022-08-14T06:35:02.807Z,100.00
2022-08-14T06:35:14.805Z,100.00
2022-08-14T06:36:13.769Z,100.00
2022-08-14T06:37:17.098Z,100.00
2022-08-14T06:38:23.235Z,100.00
2022-08-14T06:39:36.791Z,100.00
2022-08-14T06:40:36.744Z,100.00
2022-08-14T06:41:57.681Z,100.00
2022-08-14T06:43:00.389Z,100.00
2022-08-14T06:44:00.015Z,100.00
2022-08-14T06:45:01.404Z,100.00
2022-08-14T06:46:01.039Z,100.00
2022-08-14T06:47:03.852Z,100.00
2022-08-14T06:48:01.339Z,100.00
2022-08-14T06:48:58.117Z,100.00
2022-08-14T06:49:58.200Z,100.00
2022-08-14T06:50:57.959Z,100.00
2022-08-14T06:51:55.679Z,100.00
2022-08-14T06:52:52.477Z,100.00
2022-08-14T06:53:49.255Z,100.00
2022-08-14T06:54:46.490Z,100.00
2022-08-14T06:55:57.943Z,100.00
2022-08-14T06:56:57.111Z,100.00
2022-08-14T06:57:54.009Z,100.00
2022-08-14T06:58:51.103Z,100.00
2022-08-14T06:59:48.427Z,100.00
2022-08-14T07:01:05.680Z,100.00
2022-08-14T07:02:20.982Z,100.00
2022-08-14T07:03:37.970Z,100.00
2022-08-14T07:04:54.765Z,100.00
2022-08-14T07:05:57.871Z,100.00
2022-08-14T07:06:59.455Z,100.00
2022-08-14T07:07:58.151Z,100.00
2022-08-14T07:08:55.442Z,100.00
2022-08-14T07:09:52.153Z,100.00
2022-08-14T07:10:53.278Z,100.00
2022-08-14T07:11:52.031Z,100.00
2022-08-14T07:12:56.623Z,100.00
2022-08-14T07:13:59.103Z,100.00
2022-08-14T07:15:01.006Z,100.00
2022-08-14T07:16:00.476Z,100.00
2022-08-14T07:17:02.028Z,100.00
2022-08-14T07:18:01.197Z,100.00
2022-08-14T07:18:58.087Z,100.00
2022-08-14T07:19:55.464Z,100.00
2022-08-14T07:20:54.774Z,100.00
2022-08-14T07:21:52.092Z,100.00
2022-08-14T07:22:56.517Z,100.00
2022-08-14T07:23:53.896Z,100.00
2022-08-14T07:24:50.620Z,100.00
2022-08-14T07:25:48.643Z,100.00
2022-08-14T07:26:48.250Z,100.00
2022-08-14T07:27:45.161Z,100.00
2022-08-14T07:28:43.024Z,100.00
2022-08-14T07:29:40.549Z,100.00
2022-08-14T07:30:37.589Z,100.00
2022-08-14T07:31:38.970Z,100.00
2022-08-14T07:32:35.794Z,100.00
2022-08-14T07:33:35.946Z,100.00
2022-08-14T07:34:40.685Z,100.00
2022-08-14T07:35:57.817Z,100.00
2022-08-14T07:37:00.793Z,100.00
2022-08-14T07:37:58.265Z,100.00
2022-08-14T07:38:56.097Z,100.00
2022-08-14T07:39:52.986Z,100.00
2022-08-14T07:40:53.000Z,100.00
2022-08-14T07:41:50.509Z,100.00
2022-08-14T07:42:47.247Z,100.00
2022-08-14T07:43:55.637Z,100.00
2022-08-14T07:44:52.811Z,100.00
2022-08-14T07:45:53.808Z,100.00
2022-08-14T07:46:50.859Z,100.00
2022-08-14T07:47:47.594Z,100.00
2022-08-14T07:48:44.777Z,100.00
2022-08-14T07:50:02.489Z,100.00
2022-08-14T07:51:03.279Z,100.00
2022-08-14T07:52:08.186Z,100.00
2022-08-14T07:53:06.877Z,100.00
2022-08-14T07:54:11.152Z,100.00
2022-08-14T07:55:09.628Z,100.00
2022-08-14T07:56:21.705Z,100.00
2022-08-14T07:57:24.866Z,100.00
2022-08-14T07:58:34.033Z,100.00
2022-08-14T07:59:41.862Z,100.00
2022-08-14T08:00:40.102Z,100.00
2022-08-14T08:01:48.246Z,100.00
2022-08-14T08:02:55.799Z,100.00
2022-08-14T08:04:00.093Z,100.00
2022-08-14T08:05:00.608Z,100.00
2022-08-14T08:05:58.133Z,100.00
2022-08-14T08:06:55.844Z,100.00
2022-08-14T08:07:54.124Z,100.00
2022-08-14T08:08:58.857Z,100.00
2022-08-14T08:10:01.118Z,100.00
2022-08-14T08:11:03.245Z,100.00
2022-08-14T08:12:09.497Z,100.00
2022-08-14T08:13:17.302Z,100.00
2022-08-14T08:14:17.437Z,100.00
2022-08-14T08:15:15.459Z,100.00
2022-08-14T08:16:13.652Z,100.00
2022-08-14T08:17:12.919Z,100.00
2022-08-14T08:18:20.635Z,100.00
2022-08-14T08:19:26.244Z,100.00
2022-08-14T08:20:41.540Z,100.00
2022-08-14T08:21:48.946Z,100.00
2022-08-14T08:22:47.859Z,100.00
2022-08-14T08:23:51.532Z,100.00
2022-08-14T08:24:50.446Z,100.00
2022-08-14T08:25:50.285Z,100.00
2022-08-14T08:26:50.296Z,100.00
2022-08-14T08:28:08.941Z,100.00
2022-08-14T08:29:28.242Z,100.00
2022-08-14T08:30:27.270Z,100.00
2022-08-14T08:31:29.026Z,100.00
2022-08-14T08:32:41.942Z,100.00
2022-08-14T08:33:39.290Z,100.00
2022-08-14T08:34:49.841Z,100.00
2022-08-14T08:35:50.602Z,100.00
2022-08-14T08:36:47.737Z,100.00
2022-08-14T08:37:45.756Z,100.00
2022-08-14T08:39:14.771Z,100.00
2022-08-14T08:40:03.422Z,100.00
2022-08-14T08:41:01.266Z,100.00
2022-08-14T08:41:58.389Z,100.00
2022-08-14T08:42:55.159Z,100.00
2022-08-14T08:44:05.513Z,100.00
2022-08-14T08:45:02.569Z,100.00
2022-08-14T08:46:02.252Z,100.00
2022-08-14T08:47:01.509Z,100.00
2022-08-14T08:48:00.333Z,100.00
2022-08-14T08:50:00.103Z,100.00
2022-08-14T08:51:03.415Z,100.00
2022-08-14T08:52:05.313Z,100.00
2022-08-14T08:53:05.211Z,100.00
2022-08-14T08:54:11.850Z,100.00
2022-08-14T08:55:15.115Z,100.00
2022-08-14T08:56:11.904Z,100.00
2022-08-14T08:57:27.095Z,100.00
2022-08-14T08:58:25.099Z,100.00
2022-08-14T08:59:31.083Z,100.00
2022-08-14T09:00:34.299Z,100.00
2022-08-14T09:01:32.968Z,100.00
2022-08-14T09:02:29.770Z,100.00
2022-08-14T09:03:30.152Z,100.00
2022-08-14T09:04:28.789Z,100.00
2022-08-14T09:05:26.486Z,100.00
2022-08-14T09:07:00.915Z,100.00
2022-08-14T09:07:39.937Z,100.00
2022-08-14T09:08:38.478Z,100.00
2022-08-14T09:09:54.347Z,100.00
2022-08-14T09:10:56.405Z,100.00
2022-08-14T09:11:55.349Z,100.00
2022-08-14T09:12:52.573Z,100.00
2022-08-14T09:13:52.868Z,100.00
2022-08-14T09:14:53.218Z,100.00
2022-08-14T09:15:50.068Z,100.00
2022-08-14T09:16:50.512Z,100.00
2022-08-14T09:17:47.582Z,100.00
2022-08-14T09:18:46.863Z,100.00
2022-08-14T09:19:46.858Z,100.00
2022-08-14T09:20:49.385Z,100.00
2022-08-14T09:21:46.871Z,100.00
2022-08-14T09:22:47.623Z,100.00
2022-08-14T09:24:26.377Z,100.00
2022-08-14T09:25:07.552Z,100.00
2022-08-14T09:26:05.168Z,100.00
2022-08-14T09:27:22.393Z,100.00
2022-08-14T09:28:20.684Z,100.00
2022-08-14T09:29:23.364Z,100.00
2022-08-14T09:30:32.621Z,100.00
2022-08-14T09:31:42.896Z,100.00
2022-08-14T09:33:11.601Z,100.00
2022-08-14T09:34:30.794Z,100.00
2022-08-14T09:35:56.566Z,100.00
2022-08-14T09:37:33.194Z,100.00
2022-08-14T09:38:50.944Z,100.00
2022-08-14T09:40:24.919Z,100.00
2022-08-14T09:42:21.049Z,100.00
2022-08-14T09:43:41.737Z,100.00
2022-08-14T09:45:16.731Z,100.00
2022-08-14T09:46:17.020Z,100.00
2022-08-14T09:47:18.754Z,100.00
2022-08-14T09:48:18.721Z,100.00
2022-08-14T09:49:16.621Z,100.00
2022-08-14T09:50:16.868Z,100.00
2022-08-14T09:51:25.986Z,100.00
2022-08-14T09:52:33.870Z,100.00
2022-08-14T09:54:19.208Z,100.00
2022-08-14T09:55:02.762Z,100.00
2022-08-14T09:56:01.798Z,100.00
2022-08-14T09:56:59.666Z,100.00
2022-08-14T09:58:19.674Z,100.00
2022-08-14T09:59:22.339Z,100.00
2022-08-14T10:00:44.202Z,100.00
2022-08-14T10:01:41.692Z,100.00
2022-08-14T10:02:45.628Z,100.00
2022-08-14T10:03:52.427Z,100.00
2022-08-14T10:05:10.115Z,100.00
2022-08-14T10:06:11.978Z,100.00
2022-08-14T10:07:10.158Z,100.00
2022-08-14T10:08:26.272Z,100.00
2022-08-14T10:09:24.718Z,100.00
2022-08-14T10:10:39.302Z,100.00
2022-08-14T10:11:38.331Z,100.00
2022-08-14T10:12:44.844Z,100.00
2022-08-14T10:13:52.805Z,100.00
2022-08-14T10:14:53.382Z,100.00
2022-08-14T10:15:51.394Z,100.00
2022-08-14T10:16:52.597Z,100.00
2022-08-14T10:18:17.291Z,100.00
2022-08-14T10:19:16.783Z,100.00
2022-08-14T10:20:39.656Z,100.00
2022-08-14T10:21:58.672Z,100.00
2022-08-14T10:23:11.909Z,100.00
2022-08-14T10:24:11.386Z,100.00
2022-08-14T10:25:17.344Z,100.00
2022-08-14T10:26:22.676Z,100.00
2022-08-14T10:27:26.730Z,100.00
2022-08-14T10:28:51.638Z,100.00
2022-08-14T10:29:51.609Z,100.00
2022-08-14T10:30:54.170Z,100.00
2022-08-14T10:31:59.410Z,100.00
2022-08-14T10:32:56.313Z,100.00
2022-08-14T10:34:12.855Z,97.66
2022-08-14T10:35:14.213Z,100.00
2022-08-14T10:36:19.757Z,99.90
2022-08-14T10:37:39.944Z,98.18
2022-08-14T10:38:37.334Z,97.13
2022-08-14T10:39:36.548Z,99.46
2022-08-14T10:40:44.068Z,100.00
2022-08-14T10:41:59.716Z,100.00
2022-08-14T10:42:58.845Z,100.00
2022-08-14T10:44:20.873Z,99.61
2022-08-14T10:45:21.318Z,97.47
2022-08-14T10:47:36.520Z,97.62
2022-08-14T10:48:07.100Z,96.37
2022-08-14T10:49:06.450Z,97.67
2022-08-14T10:50:04.149Z,99.35
2022-08-14T10:51:01.641Z,97.23
2022-08-14T10:52:08.463Z,99.68
2022-08-14T10:53:05.597Z,100.00
2022-08-14T10:54:16.315Z,97.07
2022-08-14T10:55:19.399Z,95.76
2022-08-14T10:56:21.379Z,94.71
2022-08-14T10:57:30.328Z,93.88
2022-08-14T10:58:34.233Z,91.69
2022-08-14T11:00:01.439Z,92.10
2022-08-14T11:01:01.004Z,92.30
2022-08-14T11:01:59.820Z,93.38
2022-08-14T11:03:15.714Z,91.74
2022-08-14T11:04:30.700Z,90.46
2022-08-14T11:05:40.494Z,90.44
2022-08-14T11:06:38.705Z,89.10
2022-08-14T11:07:40.542Z,93.24
2022-08-14T11:08:40.283Z,92.67
2022-08-14T11:09:41.728Z,90.46
2022-08-14T11:10:54.391Z,92.62
2022-08-14T11:12:33.199Z,93.01
2022-08-14T11:13:21.387Z,94.16
2022-08-14T11:14:22.619Z,93.55
2022-08-14T11:15:23.469Z,91.80
2022-08-14T11:16:21.313Z,89.60
2022-08-14T11:17:21.614Z,87.59
2022-08-14T11:18:20.535Z,90.05
2022-08-14T11:19:27.316Z,89.60
2022-08-14T11:20:29.878Z,90.69
2022-08-14T11:21:30.272Z,91.99
2022-08-14T11:22:55.674Z,90.98
2022-08-14T11:23:53.403Z,91.15
2022-08-14T11:24:55.659Z,91.90
2022-08-14T11:25:53.785Z,91.38
2022-08-14T11:26:51.817Z,92.22
2022-08-14T11:27:54.996Z,93.37
2022-08-14T11:28:53.653Z,89.98
2022-08-14T11:30:00.533Z,91.50
2022-08-14T11:31:13.998Z,88.59
2022-08-14T11:32:10.899Z,90.04
2022-08-14T11:33:09.145Z,91.10
2022-08-14T11:34:10.255Z,92.96
2022-08-14T11:35:26.567Z,93.95
2022-08-14T11:37:02.313Z,93.75
2022-08-14T11:38:06.075Z,88.88
2022-08-14T11:39:04.157Z,87.63
2022-08-14T11:40:16.209Z,85.13
2022-08-14T11:41:17.226Z,84.39
2022-08-14T11:42:57.805Z,83.25
2022-08-14T11:43:57.848Z,83.28
2022-08-14T11:45:04.288Z,77.76
2022-08-14T11:46:03.562Z,78.07
2022-08-14T11:47:06.916Z,81.05
2022-08-14T11:49:03.521Z,81.33
2022-08-14T11:49:42.963Z,82.56
2022-08-14T11:50:40.157Z,85.43
2022-08-14T11:51:52.951Z,84.10
2022-08-14T11:52:53.798Z,80.45
2022-08-14T11:54:05.472Z,78.54
2022-08-14T11:55:02.285Z,77.61
2022-08-14T11:56:04.389Z,77.58
2022-08-14T11:57:05.173Z,75.14
2022-08-14T11:58:08.772Z,74.35
2022-08-14T11:59:10.329Z,74.89
2022-08-14T12:00:14.899Z,75.13
2022-08-14T12:01:16.791Z,73.71
2022-08-14T12:03:00.636Z,73.03
2022-08-14T12:03:46.599Z,72.37
2022-08-14T12:04:53.854Z,73.26
2022-08-14T12:05:51.682Z,73.85
2022-08-14T12:06:53.838Z,73.67
2022-08-14T12:07:50.583Z,74.29
2022-08-14T12:08:52.591Z,74.78
2022-08-14T12:09:56.241Z,75.69
2022-08-14T12:10:57.177Z,75.01
2022-08-14T12:11:54.739Z,76.01
2022-08-14T12:12:56.492Z,75.86
2022-08-14T12:13:56.010Z,75.11
2022-08-14T12:15:00.112Z,74.63
2022-08-14T12:16:11.228Z,73.06
2022-08-14T12:17:17.830Z,72.81
2022-08-14T12:18:34.389Z,72.68
2022-08-14T12:19:33.762Z,73.37
2022-08-14T12:20:36.247Z,75.56
2022-08-14T12:21:33.270Z,74.67
2022-08-14T12:22:40.245Z,75.63
2022-08-14T12:23:40.146Z,78.11
2022-08-14T12:24:40.245Z,79.04
2022-08-14T12:25:37.899Z,80.75
2022-08-14T12:26:40.734Z,80.47
2022-08-14T12:27:53.514Z,81.16
2022-08-14T12:28:59.273Z,80.35
2022-08-14T12:29:57.499Z,81.55
2022-08-14T12:30:56.705Z,82.67
2022-08-14T12:32:04.513Z,82.36
2022-08-14T12:33:04.557Z,81.19
2022-08-14T12:34:10.531Z,81.50
2022-08-14T12:35:09.335Z,84.13
2022-08-14T12:36:11.036Z,82.91
2022-08-14T12:37:12.005Z,79.99
2022-08-14T12:38:21.161Z,79.09
2022-08-14T12:39:21.338Z,79.63
2022-08-14T12:40:24.835Z,80.31
2022-08-14T12:41:24.137Z,82.27
2022-08-14T12:42:38.674Z,80.98
2022-08-14T12:43:51.772Z,83.10
2022-08-14T12:44:48.789Z,81.26
2022-08-14T12:45:51.002Z,79.92
2022-08-14T12:46:49.148Z,80.05
2022-08-14T12:47:46.612Z,82.45
2022-08-14T12:48:50.338Z,82.31
2022-08-14T12:49:54.277Z,83.91
2022-08-14T12:50:54.961Z,85.77
2022-08-14T12:52:00.878Z,84.63
2022-08-14T12:53:13.996Z,83.81
2022-08-14T12:54:26.915Z,83.34
2022-08-14T12:55:32.705Z,84.12
2022-08-14T12:56:42.579Z,84.38
2022-08-14T12:57:49.474Z,86.31
2022-08-14T12:58:58.613Z,88.26
2022-08-14T13:00:22.471Z,86.44
2022-08-14T13:01:31.160Z,87.27
2022-08-14T13:02:29.622Z,89.74
2022-08-14T13:03:28.810Z,89.51
2022-08-14T13:04:25.696Z,91.40
2022-08-14T13:05:30.030Z,91.71
2022-08-14T13:06:27.329Z,90.86
2022-08-14T13:07:32.547Z,91.77
2022-08-14T13:08:33.702Z,93.65
2022-08-14T13:09:36.459Z,95.29
2022-08-14T13:10:46.542Z,94.07
2022-08-14T13:11:49.574Z,92.81
2022-08-14T13:13:15.531Z,94.88
2022-08-14T13:14:18.265Z,94.71
2022-08-14T13:15:19.497Z,96.87
2022-08-14T13:16:20.260Z,96.87
2022-08-14T13:17:18.472Z,97.37
2022-08-14T13:18:17.060Z,97.15
2022-08-14T13:19:18.481Z,98.97
2022-08-14T13:20:23.206Z,99.76
2022-08-14T13:21:21.907Z,100.00